Time;durP1;ratioP1;P1;durP2;ratioP2;P2;SDS_P1;SDS_P2;PMS_P1;PMS_P2;Temp;Humidity;BMP_temperature;BMP_pressure;BME280_temperature;BME280_humidity;BME280_pressure;Samples;Min_cycle;Max_cycle;Signal;HPM_P1;HPM_P2
2022/07/29 00:02:14;;;;;;;7.87;2.67;;;18.70;99.90;;;;;;5046403;28;20726;-66
2022/07/29 00:04:41;;;;;;;6.33;2.70;;;18.70;99.90;;;;;;5044494;28;20203;-66
2022/07/29 00:07:08;;;;;;;4.83;2.60;;;18.70;99.90;;;;;;5051398;28;21581;-66
2022/07/29 00:09:36;;;;;;;6.30;2.80;;;18.70;99.90;;;;;;5045597;28;20298;-66
2022/07/29 00:12:19;;;;;;;3.23;2.10;;;18.70;99.90;;;;;;5049728;28;20246;-66
2022/07/29 00:14:53;;;;;;;7.80;2.30;;;18.80;99.90;;;;;;5045596;28;20198;-66
2022/07/29 00:17:20;;;;;;;8.00;2.47;;;18.80;99.90;;;;;;5044719;28;20210;-67
2022/07/29 00:19:46;;;;;;;3.87;2.27;;;18.80;99.90;;;;;;5048018;28;20199;-66
2022/07/29 00:22:14;;;;;;;4.03;2.73;;;18.80;99.90;;;;;;5048858;28;20269;-66
2022/07/29 00:24:41;;;;;;;4.67;2.97;;;18.80;99.90;;;;;;5048880;28;20199;-66
2022/07/29 00:27:08;;;;;;;5.87;3.50;;;18.70;99.90;;;;;;5045091;28;20207;-67
2022/07/29 00:29:34;;;;;;;5.27;3.47;;;18.70;99.90;;;;;;5049608;28;20583;-66
2022/07/29 00:32:02;;;;;;;6.63;3.60;;;18.50;99.90;;;;;;5043834;28;20219;-66
2022/07/29 00:37:16;;;;;;;4.80;3.10;;;18.30;99.90;;;;;;5047983;28;20668;-66
2022/07/29 00:39:43;;;;;;;4.40;3.20;;;18.20;99.90;;;;;;5043852;28;20203;-66
2022/07/29 00:42:09;;;;;;;7.27;3.60;;;18.30;99.90;;;;;;5041886;28;20417;-66
2022/07/29 00:44:40;;;;;;;4.57;3.27;;;18.40;99.90;;;;;;5044232;28;20207;-66
2022/07/29 00:47:08;;;;;;;4.70;3.10;;;18.60;99.90;;;;;;5046452;28;20234;-66
2022/07/29 00:49:35;;;;;;;6.10;2.93;;;18.80;99.90;;;;;;5040589;28;20609;-66
2022/07/29 00:52:04;;;;;;;6.10;3.70;;;18.90;99.90;;;;;;5046329;28;20656;-65
2022/07/29 00:54:32;;;;;;;5.73;3.13;;;19.00;99.90;;;;;;5050913;28;20205;-66
2022/07/29 00:56:59;;;;;;;5.33;2.80;;;18.90;99.90;;;;;;5040382;28;20201;-66
2022/07/29 00:59:27;;;;;;;6.33;3.20;;;19.00;99.90;;;;;;5052849;28;20195;-66
2022/07/29 01:02:00;;;;;;;6.53;3.20;;;19.00;99.90;;;;;;5046744;28;20623;-65
2022/07/29 01:04:27;;;;;;;4.17;3.00;;;19.10;99.90;;;;;;5053584;28;20198;-66
2022/07/29 01:06:54;;;;;;;4.50;3.00;;;19.00;99.90;;;;;;5044845;28;20195;-65
2022/07/29 01:09:22;;;;;;;3.97;3.20;;;18.90;99.90;;;;;;5045886;28;20201;-65
2022/07/29 01:12:10;;;;;;;7.70;3.23;;;18.90;99.90;;;;;;5047896;28;20276;-65
2022/07/29 01:14:38;;;;;;;6.80;3.67;;;18.80;99.90;;;;;;5048602;28;20222;-65
2022/07/29 01:17:11;;;;;;;6.50;3.80;;;18.70;99.90;;;;;;5040186;28;20202;-65
2022/07/29 01:19:59;;;;;;;7.80;3.57;;;18.80;99.90;;;;;;5039318;28;20222;-65
2022/07/29 01:22:34;;;;;;;5.90;3.60;;;18.80;99.90;;;;;;5048951;28;20659;-65
2022/07/29 01:25:29;;;;;;;4.37;3.37;;;18.70;99.90;;;;;;5040535;28;20569;-65
2022/07/29 01:28:05;;;;;;;4.60;3.63;;;18.60;99.90;;;;;;5042303;28;20214;-65
2022/07/29 01:30:35;;;;;;;9.47;3.70;;;18.70;99.90;;;;;;5046473;28;20745;-66
2022/07/29 01:33:06;;;;;;;5.43;3.50;;;18.80;99.90;;;;;;5044206;28;20217;-66
2022/07/29 01:35:39;;;;;;;4.93;3.43;;;18.80;99.90;;;;;;5044042;28;20192;-66
2022/07/29 01:38:13;;;;;;;4.80;3.10;;;18.80;99.90;;;;;;5044863;28;20191;-66
2022/07/29 01:40:47;;;;;;;6.50;3.10;;;18.80;99.90;;;;;;5043066;28;20219;-66
2022/07/29 01:43:27;;;;;;;4.60;2.97;;;18.70;99.90;;;;;;5046681;28;20209;-66
2022/07/29 01:46:01;;;;;;;5.27;3.33;;;18.60;99.90;;;;;;5044638;28;20215;-67
2022/07/29 01:48:39;;;;;;;6.10;3.50;;;18.80;99.90;;;;;;5045504;28;20209;-66
2022/07/29 01:51:17;;;;;;;6.27;3.90;;;19.00;99.90;;;;;;5043969;28;20264;-66
2022/07/29 01:53:55;;;;;;;9.13;3.83;;;18.90;99.90;;;;;;5048160;28;20203;-66
2022/07/29 01:56:23;;;;;;;5.37;3.83;;;18.90;99.90;;;;;;5044132;28;20666;-65
2022/07/29 01:58:53;;;;;;;5.97;4.37;;;18.70;99.90;;;;;;5043685;28;20195;-66
2022/07/29 02:01:23;;;;;;;7.37;4.40;;;18.40;99.90;;;;;;5044316;28;20215;-66
2022/07/29 02:03:52;;;;;;;5.70;4.13;;;18.20;99.90;;;;;;5047875;28;20252;-65
2022/07/29 02:06:22;;;;;;;6.07;4.17;;;18.00;99.90;;;;;;5041460;28;20195;-65
2022/07/29 02:08:51;;;;;;;6.83;4.80;;;17.80;99.90;;;;;;5046688;28;20203;-66
2022/07/29 02:11:18;;;;;;;7.50;4.80;;;17.70;99.90;;;;;;5043731;28;20225;-66
2022/07/29 02:13:46;;;;;;;5.97;4.50;;;17.80;99.90;;;;;;5046394;28;20205;-65
2022/07/29 02:16:15;;;;;;;6.93;5.00;;;17.80;99.90;;;;;;5041869;28;20218;-65
2022/07/29 02:18:45;;;;;;;6.43;4.90;;;17.60;99.90;;;;;;5046172;28;20624;-66
2022/07/29 02:21:15;;;;;;;10.00;5.70;;;17.60;99.90;;;;;;5044854;28;20223;-65
2022/07/29 02:23:44;;;;;;;8.80;6.00;;;17.50;99.90;;;;;;5047565;28;20667;-65
2022/07/29 02:26:19;;;;;;;8.13;5.83;;;17.30;99.90;;;;;;5040019;28;20203;-65
2022/07/29 02:28:47;;;;;;;8.00;6.00;;;17.20;99.90;;;;;;5042001;28;20197;-65
2022/07/29 02:31:14;;;;;;;12.20;5.57;;;17.30;99.90;;;;;;5038940;28;20211;-66
2022/07/29 02:33:42;;;;;;;8.23;5.87;;;17.30;99.90;;;;;;5042661;28;20198;-66
2022/07/29 02:36:10;;;;;;;6.97;5.20;;;17.20;99.90;;;;;;5046119;28;20214;-66
2022/07/29 02:38:53;;;;;;;8.33;4.87;;;17.20;99.90;;;;;;5051970;28;20662;-66
2022/07/29 02:41:46;;;;;;;8.60;4.30;;;17.10;99.90;;;;;;5042754;28;20616;-66
2022/07/29 02:44:21;;;;;;;9.23;3.93;;;17.20;99.90;;;;;;5047145;28;20198;-66
2022/07/29 02:46:58;;;;;;;5.53;4.13;;;17.20;99.90;;;;;;5045734;28;20190;-66
2022/07/29 02:49:34;;;;;;;5.80;4.07;;;17.30;99.90;;;;;;5042058;28;20732;-66
2022/07/29 02:52:12;;;;;;;8.90;4.80;;;17.20;99.90;;;;;;5048796;28;20229;-66
2022/07/29 02:54:44;;;;;;;7.90;4.30;;;17.20;99.90;;;;;;5045984;28;20207;-66
2022/07/29 02:57:22;;;;;;;5.50;4.63;;;17.30;99.90;;;;;;5046725;28;20199;-66
2022/07/29 02:59:52;;;;;;;6.77;4.10;;;17.20;99.90;;;;;;5045763;28;20198;-66
2022/07/29 03:02:21;;;;;;;5.60;4.20;;;17.30;99.90;;;;;;5048136;28;20218;-66
2022/07/29 03:04:49;;;;;;;8.27;4.40;;;17.20;99.90;;;;;;5043245;28;20225;-66
2022/07/29 03:07:20;;;;;;;6.73;4.43;;;17.20;99.90;;;;;;5049054;28;20509;-66
2022/07/29 03:09:47;;;;;;;10.83;4.40;;;17.20;99.90;;;;;;5042508;28;20205;-66
2022/07/29 03:12:14;;;;;;;7.63;3.97;;;17.20;99.90;;;;;;5046435;28;20218;-67
2022/07/29 03:14:43;;;;;;;6.30;4.70;;;17.10;99.90;;;;;;5039196;28;20199;-66
2022/07/29 03:17:10;;;;;;;9.50;5.00;;;17.00;99.90;;;;;;5047387;28;20666;-66
2022/07/29 03:19:37;;;;;;;7.07;4.53;;;16.90;99.90;;;;;;5046806;28;20659;-66
2022/07/29 03:22:04;;;;;;;8.20;4.50;;;16.80;99.90;;;;;;5048696;28;20230;-66
2022/07/29 03:24:33;;;;;;;5.70;4.60;;;16.60;99.90;;;;;;5038636;28;20206;-66
2022/07/29 03:27:00;;;;;;;5.90;4.40;;;16.50;99.90;;;;;;5048836;28;20199;-66
2022/07/29 03:29:28;;;;;;;9.83;5.17;;;16.40;99.90;;;;;;5048265;28;20533;-66
2022/07/29 03:32:00;;;;;;;5.63;4.70;;;16.30;99.90;;;;;;5045950;28;20306;-66
2022/07/29 03:34:29;;;;;;;7.20;5.17;;;16.20;99.90;;;;;;5046417;28;20252;-65
2022/07/29 03:36:55;;;;;;;6.13;5.27;;;16.10;99.90;;;;;;5045872;28;20203;-66
2022/07/29 03:39:27;;;;;;;7.83;5.50;;;16.10;99.90;;;;;;5041042;28;20200;-66
2022/07/29 03:41:56;;;;;;;7.33;5.53;;;16.20;99.90;;;;;;5046280;28;20280;-66
2022/07/29 03:44:24;;;;;;;7.80;6.07;;;16.20;99.90;;;;;;5049730;28;20202;-66
2022/07/29 03:46:54;;;;;;;6.40;5.13;;;16.10;99.90;;;;;;5050180;28;20537;-66
2022/07/29 03:49:22;;;;;;;8.20;5.83;;;16.10;99.90;;;;;;5047507;28;20694;-66
2022/07/29 03:51:49;;;;;;;8.10;6.23;;;16.00;99.90;;;;;;5049936;28;20218;-66
2022/07/29 03:54:16;;;;;;;10.73;6.57;;;16.20;99.90;;;;;;5046138;28;20244;-66
2022/07/29 03:56:47;;;;;;;6.43;5.13;;;16.20;99.90;;;;;;5044908;28;20195;-66
2022/07/29 03:59:16;;;;;;;6.87;5.80;;;16.10;99.90;;;;;;5052002;28;20187;-66
2022/07/29 04:01:43;;;;;;;8.10;6.13;;;16.10;99.90;;;;;;5045150;28;20219;-66
2022/07/29 04:04:10;;;;;;;6.80;5.77;;;16.00;99.90;;;;;;5046787;28;20433;-66
2022/07/29 04:06:42;;;;;;;8.43;6.20;;;16.00;99.90;;;;;;5043910;28;20659;-66
2022/07/29 04:09:09;;;;;;;8.87;6.07;;;15.90;99.90;;;;;;5043185;28;20195;-66
2022/07/29 04:11:38;;;;;;;9.80;6.20;;;16.10;99.90;;;;;;5048008;28;20222;-65
2022/07/29 04:14:25;;;;;;;7.00;5.57;;;16.20;99.90;;;;;;5041203;28;20635;-66
2022/07/29 04:16:52;;;;;;;8.10;6.20;;;16.20;99.90;;;;;;5048419;28;20222;-65
2022/07/29 04:19:19;;;;;;;11.53;6.77;;;16.20;99.90;;;;;;5046833;28;20199;-66
2022/07/29 04:21:46;;;;;;;13.27;6.90;;;16.30;99.90;;;;;;5045443;28;20226;-65
2022/07/29 04:24:12;;;;;;;10.67;7.40;;;16.30;99.90;;;;;;5049264;28;20633;-65
2022/07/29 04:26:40;;;;;;;9.00;7.37;;;16.40;99.90;;;;;;5044162;28;20195;-66
2022/07/29 04:29:07;;;;;;;10.03;7.13;;;16.50;99.90;;;;;;5047795;28;20194;-66
2022/07/29 04:31:33;;;;;;;9.53;7.27;;;16.50;99.90;;;;;;5046727;28;20207;-66
2022/07/29 04:34:00;;;;;;;9.93;7.03;;;16.50;99.90;;;;;;5043780;28;20238;-67
2022/07/29 04:36:27;;;;;;;11.87;7.10;;;16.50;99.90;;;;;;5040663;28;20195;-66
2022/07/29 04:38:55;;;;;;;9.23;7.27;;;16.40;99.90;;;;;;5043480;28;20672;-66
2022/07/29 04:41:22;;;;;;;10.70;7.70;;;16.60;99.90;;;;;;5045780;28;20289;-66
2022/07/29 04:44:00;;;;;;;9.77;7.13;;;16.70;99.90;;;;;;5044311;28;20191;-66
2022/07/29 04:46:27;;;;;;;9.43;7.50;;;16.70;99.90;;;;;;5046390;28;20225;-66
2022/07/29 04:48:54;;;;;;;13.53;7.67;;;16.70;99.90;;;;;;5046089;28;20741;-66
2022/07/29 04:51:21;;;;;;;12.53;7.53;;;16.90;99.90;;;;;;5042227;28;20299;-66
2022/07/29 04:53:47;;;;;;;10.70;7.03;;;17.00;99.90;;;;;;5045254;28;20226;-65
2022/07/29 04:56:14;;;;;;;9.80;6.80;;;17.00;99.90;;;;;;5045828;28;20190;-66
2022/07/29 04:58:41;;;;;;;9.90;6.53;;;17.00;99.90;;;;;;5043933;28;20568;-66
2022/07/29 05:01:07;;;;;;;8.37;6.50;;;17.00;99.90;;;;;;5044917;28;20886;-66
2022/07/29 05:03:34;;;;;;;8.90;6.50;;;17.00;99.90;;;;;;5045872;28;20194;-66
2022/07/29 05:06:01;;;;;;;9.03;6.17;;;17.00;99.90;;;;;;5047855;28;20206;-66
2022/07/29 05:08:28;;;;;;;8.67;6.40;;;17.00;99.90;;;;;;5043046;28;20194;-66
2022/07/29 05:10:54;;;;;;;7.90;5.87;;;17.00;99.90;;;;;;5039296;28;20713;-66
2022/07/29 05:13:21;;;;;;;11.17;7.40;;;17.10;99.90;;;;;;5040142;28;20229;-66
2022/07/29 05:15:47;;;;;;;9.67;7.17;;;17.10;99.90;;;;;;5046083;28;20195;-65
2022/07/29 05:18:15;;;;;;;8.93;6.80;;;17.30;99.90;;;;;;5051033;28;20202;-65
2022/07/29 05:20:42;;;;;;;11.00;6.03;;;17.60;99.90;;;;;;5045120;28;20678;-65
2022/07/29 05:23:08;;;;;;;7.83;5.87;;;17.70;99.90;;;;;;5047398;28;20195;-66
2022/07/29 05:25:35;;;;;;;9.03;5.93;;;17.70;99.90;;;;;;5040963;28;20202;-66
2022/07/29 05:28:10;;;;;;;9.37;5.30;;;17.70;99.90;;;;;;5052145;28;20202;-66
2022/07/29 05:30:37;;;;;;;6.03;5.03;;;17.80;99.90;;;;;;5044167;28;20226;-65
2022/07/29 05:33:04;;;;;;;7.67;5.87;;;17.90;99.90;;;;;;5047547;28;20214;-66
2022/07/29 05:35:30;;;;;;;8.40;5.80;;;18.00;99.90;;;;;;5041092;28;20195;-66
2022/07/29 05:37:57;;;;;;;8.87;6.00;;;18.00;99.90;;;;;;5044373;28;20670;-65
2022/07/29 05:40:24;;;;;;;10.13;6.43;;;18.00;99.90;;;;;;5039105;28;20211;-65
2022/07/29 05:42:50;;;;;;;7.53;6.00;;;18.30;99.90;;;;;;5048176;28;20198;-66
2022/07/29 05:45:17;;;;;;;7.93;5.27;;;18.30;99.90;;;;;;5046148;28;20202;-69
2022/07/29 05:47:44;;;;;;;6.13;5.23;;;18.30;99.90;;;;;;5050118;28;20541;-65
2022/07/29 05:50:10;;;;;;;6.37;4.93;;;18.40;99.90;;;;;;5045602;28;20217;-65
2022/07/29 05:52:37;;;;;;;8.83;5.10;;;18.60;99.90;;;;;;5041214;28;20230;-66
2022/07/29 05:55:05;;;;;;;7.43;4.90;;;18.70;99.90;;;;;;5044795;28;20192;-67
2022/07/29 05:57:32;;;;;;;8.70;5.10;;;18.80;99.90;;;;;;5046922;28;20654;-67
2022/07/29 05:59:59;;;;;;;9.60;4.80;;;19.00;99.90;;;;;;5040266;28;20190;-67
2022/07/29 06:02:25;;;;;;;9.10;4.90;;;19.10;99.90;;;;;;5049757;28;20312;-67
2022/07/29 06:04:52;;;;;;;6.73;4.70;;;19.10;99.90;;;;;;5050227;28;20202;-68
2022/07/29 06:07:19;;;;;;;6.47;4.77;;;19.20;99.90;;;;;;5044087;28;20209;-67
2022/07/29 06:09:46;;;;;;;5.70;4.70;;;19.30;99.90;;;;;;5034868;28;20199;-67
2022/07/29 06:12:12;;;;;;;8.37;4.70;;;19.40;99.90;;;;;;5035901;28;20222;-68
2022/07/29 06:14:39;;;;;;;6.90;4.60;;;19.60;99.90;;;;;;5041433;28;20202;-68
2022/07/29 06:17:06;;;;;;;5.43;3.53;;;19.90;99.90;;;;;;5041796;28;20211;-69
2022/07/29 06:19:36;;;;;;;7.80;4.40;;;20.10;99.90;;;;;;5047716;28;20206;-68
2022/07/29 06:22:03;;;;;;;8.20;4.00;;;20.30;99.90;;;;;;5042192;28;20219;-68
2022/07/29 06:24:30;;;;;;;4.93;3.90;;;20.70;99.90;;;;;;5048019;28;20210;-68
2022/07/29 06:26:57;;;;;;;5.97;3.80;;;20.90;99.90;;;;;;5044431;28;20639;-68
2022/07/29 06:29:23;;;;;;;6.13;4.07;;;20.90;99.90;;;;;;5046349;28;20467;-68
2022/07/29 06:31:50;;;;;;;7.07;3.95;;;21.00;99.90;;;;;;5047088;28;20579;-68
2022/07/29 06:34:17;;;;;;;5.82;3.70;;;21.00;99.90;;;;;;5044550;28;20214;-68
2022/07/29 06:36:45;;;;;;;6.87;3.70;;;21.00;99.90;;;;;;5042363;28;20245;-72
2022/07/29 06:39:12;;;;;;;7.43;3.53;;;21.10;99.90;;;;;;5041355;28;20195;-71
2022/07/29 06:41:39;;;;;;;6.57;3.80;;;21.30;99.90;;;;;;5047452;28;20230;-72
2022/07/29 06:44:05;;;;;;;4.38;3.40;;;21.60;99.90;;;;;;5045452;28;20201;-72
2022/07/29 06:46:32;;;;;;;5.82;3.80;;;21.80;99.90;;;;;;5045883;28;20198;-69
2022/07/29 06:49:01;;;;;;;7.63;3.50;;;22.10;99.90;;;;;;5044234;28;20202;-70
2022/07/29 06:51:28;;;;;;;6.57;3.97;;;22.20;99.90;;;;;;5033695;28;20247;-70
2022/07/29 06:53:55;;;;;;;5.72;3.60;;;22.40;99.90;;;;;;5038628;28;20226;-67
2022/07/29 06:56:32;;;;;;;6.13;3.88;;;22.60;99.90;;;;;;5031387;28;20253;-69
2022/07/29 06:59:06;;;;;;;7.53;4.22;;;22.70;99.90;;;;;;5035983;28;20325;-70
2022/07/29 07:01:34;;;;;;;8.90;3.72;;;22.90;99.90;;;;;;5037938;28;20300;-67
2022/07/29 07:04:01;;;;;;;8.85;3.22;;;23.10;99.90;;;;;;5031845;28;20221;-69
2022/07/29 07:06:28;;;;;;;5.43;3.30;;;23.30;99.90;;;;;;5038007;28;20199;-69
2022/07/29 07:08:55;;;;;;;14.73;3.28;;;23.80;99.90;;;;;;5043870;28;20210;-68
2022/07/29 07:11:22;;;;;;;6.38;3.42;;;24.30;99.90;;;;;;5034467;28;20219;-68
2022/07/29 07:13:48;;;;;;;6.95;3.08;;;24.80;99.90;;;;;;5042277;28;20218;-68
2022/07/29 07:16:15;;;;;;;7.22;2.97;;;25.70;99.90;;;;;;5039063;28;20206;-70
2022/07/29 07:18:44;;;;;;;4.68;2.60;;;26.20;99.90;;;;;;5044856;28;20209;-68
2022/07/29 07:21:12;;;;;;;5.43;2.55;;;26.60;99.90;;;;;;5047389;28;20217;-70
2022/07/29 07:23:45;;;;;;;8.80;3.00;;;26.90;99.90;;;;;;5046258;28;20209;-68
2022/07/29 07:26:12;;;;;;;6.25;2.60;;;27.20;99.90;;;;;;5040281;28;20203;-68
2022/07/29 07:28:39;;;;;;;4.82;2.72;;;27.50;99.90;;;;;;5044472;28;20230;-70
2022/07/29 07:31:06;;;;;;;4.93;2.92;;;27.70;99.90;;;;;;5042971;28;20242;-68
2022/07/29 07:33:32;;;;;;;4.75;2.60;;;27.70;99.90;;;;;;5043215;28;20222;-67
2022/07/29 07:35:59;;;;;;;4.50;2.53;;;27.60;99.90;;;;;;5040142;28;20187;-68
2022/07/29 07:38:26;;;;;;;4.68;2.88;;;27.70;99.90;;;;;;5041528;28;20207;-70
2022/07/29 07:40:52;;;;;;;5.03;2.55;;;27.80;99.90;;;;;;5044768;28;20219;-69
2022/07/29 07:43:19;;;;;;;12.48;3.17;;;27.50;99.90;;;;;;5041411;28;20206;-69
2022/07/29 07:45:46;;;;;;;4.78;2.60;;;27.40;99.90;;;;;;5043786;28;20632;-68
2022/07/29 07:48:12;;;;;;;6.90;2.90;;;27.30;99.90;;;;;;5048134;28;20290;-68
2022/07/29 07:50:39;;;;;;;4.65;2.90;;;27.50;99.90;;;;;;5040134;28;20703;-69
2022/07/29 07:53:06;;;;;;;9.38;3.35;;;27.70;99.90;;;;;;5038774;28;20249;-68
2022/07/29 07:55:33;;;;;;;7.32;3.10;;;27.90;99.90;;;;;;5046391;28;20218;-68
2022/07/29 07:58:19;;;;;;;8.07;2.70;;;27.80;99.90;;;;;;5048705;28;20191;-69
2022/07/29 08:00:46;;;;;;;3.03;2.50;;;27.80;99.90;;;;;;5045678;28;20221;-68
2022/07/29 08:03:13;;;;;;;5.30;2.47;;;27.70;99.90;;;;;;5047608;28;20285;-68
2022/07/29 08:05:42;;;;;;;5.45;2.42;;;27.70;99.90;;;;;;5032178;28;20200;-70
2022/07/29 08:08:09;;;;;;;7.05;2.60;;;27.70;99.90;;;;;;5038190;28;20199;-67
2022/07/29 08:13:23;;;;;;;3.97;2.60;;;27.70;99.90;;;;;;5036816;28;20219;-67
2022/07/29 08:15:57;;;;;;;6.03;2.90;;;27.50;99.90;;;;;;5037939;28;20254;-67
2022/07/29 08:18:25;;;;;;;4.15;2.67;;;27.30;99.90;;;;;;5040803;28;20626;-67
2022/07/29 08:20:52;;;;;;;4.90;2.53;;;27.20;99.90;;;;;;5039958;28;20222;-67
2022/07/29 08:23:19;;;;;;;5.93;2.70;;;27.00;99.90;;;;;;5044938;28;20612;-67
2022/07/29 08:25:46;;;;;;;6.00;3.10;;;27.30;99.90;;;;;;5034670;28;20670;-67
2022/07/29 08:28:16;;;;;;;5.57;2.70;;;27.80;99.90;;;;;;5037886;28;20611;-67
2022/07/29 08:30:43;;;;;;;6.03;3.13;;;28.10;99.90;;;;;;5031397;28;20224;-67
2022/07/29 08:33:10;;;;;;;4.03;2.72;;;28.50;99.90;;;;;;5038673;28;20237;-67
2022/07/29 08:35:38;;;;;;;4.47;2.72;;;28.80;99.90;;;;;;5036236;28;20203;-67
2022/07/29 08:38:05;;;;;;;7.50;2.92;;;28.90;99.90;;;;;;5029452;28;20195;-67
2022/07/29 08:40:32;;;;;;;8.27;2.60;;;28.90;99.90;;;;;;5040073;28;20218;-67
2022/07/29 08:43:08;;;;;;;5.85;2.95;;;29.20;99.90;;;;;;5037504;28;20217;-72
2022/07/29 08:45:46;;;;;;;7.15;2.70;;;29.60;99.90;;;;;;5034776;28;20213;-67
2022/07/29 08:48:17;;;;;;;3.35;2.38;;;30.00;99.90;;;;;;5038029;28;20254;-70
2022/07/29 08:50:45;;;;;;;6.75;2.67;;;30.20;99.90;;;;;;5032149;28;20223;-66
2022/07/29 08:53:17;;;;;;;4.20;2.67;;;30.40;99.90;;;;;;5037539;28;20259;-72
2022/07/29 08:55:46;;;;;;;5.35;2.70;;;30.40;99.80;;;;;;5037313;28;20204;-66
2022/07/29 08:58:14;;;;;;;5.35;3.10;;;30.50;99.90;;;;;;5035386;28;20210;-66
2022/07/29 09:00:45;;;;;;;4.38;3.05;;;30.60;99.90;;;;;;5045007;28;20221;-66
2022/07/29 09:03:17;;;;;;;4.35;2.67;;;30.50;99.80;;;;;;5035556;28;20205;-66
2022/07/29 09:05:46;;;;;;;5.60;2.83;;;30.10;99.80;;;;;;5042282;28;20522;-66
2022/07/29 09:08:15;;;;;;;7.00;2.90;;;30.10;99.90;;;;;;5039315;28;20203;-67
2022/07/29 09:10:42;;;;;;;6.53;3.15;;;30.20;99.90;;;;;;5036313;28;20722;-67
2022/07/29 09:13:09;;;;;;;11.68;3.10;;;30.10;99.90;;;;;;5036683;28;20565;-66
2022/07/29 09:15:36;;;;;;;7.43;2.70;;;30.30;99.90;;;;;;5035121;28;20199;-67
2022/07/29 09:18:02;;;;;;;6.80;3.00;;;30.40;99.90;;;;;;5037541;28;20199;-66
2022/07/29 09:21:57;;;;;;;7.18;3.30;;;30.60;99.90;;;;;;5035192;28;20220;-66
2022/07/29 09:23:16;;;;;;;5.25;2.83;;;30.30;99.70;;;;;;5035200;28;20198;-66
2022/07/29 09:25:50;;;;;;;4.20;2.83;;;29.60;99.90;;;;;;5028537;28;20195;-66
2022/07/29 09:28:18;;;;;;;4.43;2.85;;;29.30;99.90;;;;;;5031069;28;20200;-66
2022/07/29 09:30:56;;;;;;;4.97;2.88;;;29.30;99.90;;;;;;5037139;28;20246;-66
2022/07/29 09:33:24;;;;;;;6.28;2.75;;;29.10;99.90;;;;;;5031564;28;20587;-66
2022/07/29 09:36:03;;;;;;;5.57;2.90;;;29.00;99.90;;;;;;5024848;28;20814;-67
2022/07/29 09:38:32;;;;;;;5.55;3.10;;;29.10;99.90;;;;;;5033704;28;20843;-67
2022/07/29 09:41:00;;;;;;;4.78;2.70;;;28.90;99.90;;;;;;5022588;28;20223;-66
2022/07/29 09:43:32;;;;;;;4.20;2.85;;;28.70;99.90;;;;;;5031807;28;20234;-66
2022/07/29 09:46:12;;;;;;;5.07;2.90;;;28.60;99.90;;;;;;5027013;28;20195;-67
2022/07/29 09:48:39;;;;;;;4.20;2.80;;;28.50;99.90;;;;;;5031807;28;20199;-66
2022/07/29 09:51:20;;;;;;;7.53;3.20;;;28.60;99.90;;;;;;5032369;28;20699;-66
2022/07/29 09:53:55;;;;;;;5.70;3.28;;;28.50;99.90;;;;;;5025376;28;20264;-66
2022/07/29 09:56:41;;;;;;;6.35;3.00;;;28.50;99.90;;;;;;5033025;28;20224;-67
2022/07/29 09:59:10;;;;;;;3.88;2.67;;;28.50;99.90;;;;;;5026743;28;20205;-67
2022/07/29 10:01:37;;;;;;;7.18;2.97;;;28.70;99.90;;;;;;5032003;28;20215;-67
2022/07/29 10:04:04;;;;;;;4.43;2.95;;;28.80;99.90;;;;;;5030494;28;20706;-67
2022/07/29 10:06:31;;;;;;;5.47;2.60;;;29.00;99.90;;;;;;5030848;28;20199;-66
2022/07/29 10:09:09;;;;;;;4.30;3.10;;;29.40;99.90;;;;;;5031696;28;20583;-66
2022/07/29 10:11:35;;;;;;;4.35;3.00;;;29.70;99.90;;;;;;5029119;28;20307;-66
2022/07/29 10:14:15;;;;;;;6.50;2.90;;;29.90;99.90;;;;;;5024252;28;20280;-66
2022/07/29 10:16:43;;;;;;;3.72;2.88;;;30.10;99.90;;;;;;5032799;28;20873;-66
2022/07/29 10:19:10;;;;;;;4.93;2.88;;;30.00;99.90;;;;;;5030456;28;20191;-67
2022/07/29 10:21:39;;;;;;;3.08;2.60;;;30.10;99.90;;;;;;5028802;28;20215;-66
2022/07/29 10:24:07;;;;;;;3.83;2.95;;;30.20;99.90;;;;;;5029318;28;20195;-68
2022/07/29 10:26:41;;;;;;;6.40;2.78;;;30.40;99.90;;;;;;5026677;28;20217;-68
2022/07/29 10:29:07;;;;;;;4.40;2.90;;;30.30;99.90;;;;;;5039322;28;20202;-67
2022/07/29 10:32:09;;;;;;;7.65;3.42;;;30.30;99.90;;;;;;5043037;28;20696;-67
2022/07/29 10:34:45;;;;;;;9.10;3.13;;;30.20;99.90;;;;;;5034448;28;20223;-68
2022/07/29 10:37:18;;;;;;;9.98;3.10;;;30.40;99.90;;;;;;5030546;28;20202;-68
2022/07/29 10:39:49;;;;;;;3.80;2.88;;;30.70;99.90;;;;;;5044219;28;20198;-67
2022/07/29 10:42:25;;;;;;;4.60;2.95;;;31.00;99.90;;;;;;5039532;28;20207;-68
2022/07/29 10:45:00;;;;;;;5.10;3.13;;;30.70;99.90;;;;;;5038647;28;20195;-69
2022/07/29 10:47:27;;;;;;;6.88;3.20;;;30.50;99.90;;;;;;5037227;28;20218;-68
2022/07/29 10:50:04;;;;;;;3.33;2.83;;;30.50;99.90;;;;;;5029519;28;20199;-67
2022/07/29 10:52:49;;;;;;;4.07;2.90;;;30.30;99.40;;;;;;5028932;28;20207;-67
2022/07/29 10:55:33;;;;;;;5.00;3.10;;;30.10;99.80;;;;;;5033303;28;20337;-64
2022/07/29 10:58:18;;;;;;;7.03;3.00;;;30.20;99.90;;;;;;5025884;28;21063;-67
2022/07/29 11:00:47;;;;;;;7.22;3.22;;;30.60;99.90;;;;;;5038073;28;20710;-65
2022/07/29 11:03:44;;;;;;;7.30;3.17;;;30.70;99.90;;;;;;5040811;28;20191;-65
2022/07/29 11:06:16;;;;;;;4.65;3.10;;;31.10;99.50;;;;;;5039741;28;20256;-69
2022/07/29 11:09:17;;;;;;;7.55;2.95;;;31.20;99.70;;;;;;5036140;28;20210;-67
2022/07/29 11:11:46;;;;;;;5.95;3.25;;;31.20;99.70;;;;;;5038720;28;20599;-66
2022/07/29 11:14:18;;;;;;;4.28;3.00;;;31.20;99.90;;;;;;5031619;28;20222;-68
2022/07/29 11:17:03;;;;;;;7.05;2.95;;;31.10;99.50;;;;;;5034547;28;20675;-67
2022/07/29 11:19:32;;;;;;;6.05;3.22;;;31.10;99.90;;;;;;5039756;28;20221;-68
2022/07/29 11:22:01;;;;;;;3.97;3.05;;;31.40;99.50;;;;;;5026464;28;20247;-67
2022/07/29 11:24:31;;;;;;;6.55;3.35;;;31.50;99.10;;;;;;5032933;28;20598;-69
2022/07/29 11:27:16;;;;;;;6.28;3.17;;;31.60;99.30;;;;;;5022525;28;20234;-70
2022/07/29 11:30:04;;;;;;;7.57;3.53;;;31.40;99.30;;;;;;5027419;28;20207;-69
2022/07/29 11:32:38;;;;;;;5.82;3.15;;;31.10;99.00;;;;;;5021684;28;20214;-69
2022/07/29 11:35:24;;;;;;;4.38;3.00;;;31.20;99.30;;;;;;5032842;28;20221;-69
2022/07/29 11:38:28;;;;;;;8.25;3.20;;;31.40;99.40;;;;;;5028202;28;20192;-71
2022/07/29 11:41:24;;;;;;;5.50;3.28;;;31.30;99.30;;;;;;5042603;28;20258;-70
2022/07/29 11:43:52;;;;;;;3.83;3.15;;;31.40;99.70;;;;;;5029527;28;20203;-70
2022/07/29 11:46:41;;;;;;;3.60;3.20;;;31.50;99.10;;;;;;5036392;28;20209;-73
2022/07/29 11:49:08;;;;;;;6.47;3.50;;;31.40;99.10;;;;;;5039161;28;20570;-70
2022/07/29 11:51:37;;;;;;;5.63;3.78;;;31.40;99.40;;;;;;5031204;28;20220;-71
2022/07/29 11:54:21;;;;;;;4.60;2.97;;;31.40;98.60;;;;;;5037735;28;20219;-71
2022/07/29 11:56:53;;;;;;;6.15;3.15;;;31.30;99.40;;;;;;5031351;28;20661;-70
2022/07/29 11:59:21;;;;;;;3.85;3.00;;;31.50;98.40;;;;;;5038029;28;20286;-73
2022/07/29 12:01:54;;;;;;;4.47;3.15;;;31.40;98.30;;;;;;5036409;28;20729;-68
2022/07/29 12:04:55;;;;;;;5.30;3.63;;;31.00;98.70;;;;;;5038081;28;20202;-67
2022/07/29 12:07:30;;;;;;;4.53;2.97;;;31.10;99.40;;;;;;5031578;28;20202;-67
2022/07/29 12:10:01;;;;;;;3.83;3.15;;;31.30;98.40;;;;;;5041489;28;20198;-67
2022/07/29 12:12:28;;;;;;;4.53;2.90;;;31.20;98.70;;;;;;5039398;28;20408;-68
2022/07/29 12:14:55;;;;;;;6.13;3.10;;;31.10;98.70;;;;;;5038375;28;20305;-67
2022/07/29 12:17:30;;;;;;;6.07;2.90;;;31.10;98.50;;;;;;5033628;28;20258;-67
2022/07/29 12:19:59;;;;;;;3.80;3.38;;;31.40;99.60;;;;;;5030266;28;20651;-66
2022/07/29 12:22:34;;;;;;;4.72;3.10;;;31.80;98.40;;;;;;5036913;28;20569;-67
2022/07/29 12:25:09;;;;;;;8.05;3.95;;;32.00;98.50;;;;;;5037534;28;20206;-67
2022/07/29 12:28:01;;;;;;;7.97;3.22;;;32.10;97.80;;;;;;5046134;28;20202;-66
2022/07/29 12:30:39;;;;;;;4.35;3.47;;;32.30;97.10;;;;;;5036463;28;20226;-65
2022/07/29 12:33:12;;;;;;;5.10;3.20;;;32.30;96.90;;;;;;5039299;28;20286;-65
2022/07/29 12:35:39;;;;;;;6.72;3.22;;;32.50;97.40;;;;;;5033545;28;20219;-67
2022/07/29 12:38:06;;;;;;;4.18;3.05;;;32.80;96.90;;;;;;5031509;28;20191;-67
2022/07/29 12:40:33;;;;;;;3.65;3.20;;;33.20;96.80;;;;;;5032817;28;20220;-68
2022/07/29 12:43:13;;;;;;;3.55;3.10;;;33.50;96.60;;;;;;5031325;28;20623;-68
2022/07/29 12:45:42;;;;;;;4.15;3.00;;;34.00;96.30;;;;;;5035156;28;20198;-69
2022/07/29 12:48:09;;;;;;;4.15;2.70;;;34.30;95.60;;;;;;5032447;28;20199;-68
2022/07/29 12:50:52;;;;;;;3.40;2.70;;;34.40;95.30;;;;;;5036665;28;20223;-67
2022/07/29 12:53:19;;;;;;;5.57;3.28;;;34.60;95.10;;;;;;5032619;28;20763;-68
2022/07/29 12:55:51;;;;;;;4.10;3.00;;;34.70;94.20;;;;;;5023824;28;20230;-67
2022/07/29 12:58:32;;;;;;;6.15;3.08;;;34.30;94.50;;;;;;5037450;28;20191;-69
2022/07/29 13:01:14;;;;;;;4.07;2.97;;;34.10;95.40;;;;;;5028071;28;20262;-68
2022/07/29 13:04:02;;;;;;;6.75;3.10;;;34.00;95.20;;;;;;5034796;28;20238;-67
2022/07/29 13:06:29;;;;;;;3.95;3.30;;;33.80;95.10;;;;;;5037573;28;20200;-67
2022/07/29 13:09:19;;;;;;;6.63;3.10;;;33.80;94.70;;;;;;5036735;28;20210;-69
2022/07/29 13:11:48;;;;;;;4.22;3.38;;;33.00;95.00;;;;;;5036770;28;20231;-67